Time;durP1;ratioP1;P1;durP2;ratioP2;P2;SDS_P1;SDS_P2;PMS_P1;PMS_P2;Temp;Humidity;BMP_temperature;BMP_pressure;BME280_temperature;BME280_humidity;BME280_pressure;Samples;Min_cycle;Max_cycle;Signal;HPM_P1;HPM_P2
2021/12/26 00:01:59;;;;;;;12.32;6.63;;;;;;;13.84;85.91;100543.88;4996780;28;20030;-70
2021/12/26 00:04:45;;;;;;;11.70;6.13;;;;;;;13.84;85.62;100545.63;4982379;28;20439;-69
2021/12/26 00:07:31;;;;;;;8.98;6.05;;;;;;;13.95;85.42;100543.50;4996181;28;20038;-70
2021/12/26 00:10:20;;;;;;;9.43;6.15;;;;;;;13.70;85.72;100548.72;4982835;28;20018;-70
2021/12/26 00:13:06;;;;;;;10.70;5.97;;;;;;;13.39;87.87;100539.22;4996192;28;20450;-70
2021/12/26 00:15:52;;;;;;;11.05;6.35;;;;;;;13.77;86.66;100538.84;4997133;28;20026;-70
2021/12/26 00:18:42;;;;;;;9.15;5.35;;;;;;;13.46;87.13;100540.72;4996013;28;20105;-70
2021/12/26 00:21:28;;;;;;;9.30;5.95;;;;;;;13.66;86.62;100540.94;4996688;28;20037;-70
2021/12/26 00:24:13;;;;;;;8.27;5.43;;;;;;;13.67;86.27;100540.06;4995988;28;20121;-68
2021/12/26 00:27:00;;;;;;;7.38;5.60;;;;;;;13.40;86.66;100544.44;4981762;28;20037;-69
2021/12/26 00:29:47;;;;;;;7.93;4.82;;;;;;;13.28;87.74;100549.22;4981738;28;20026;-70
2021/12/26 00:32:32;;;;;;;8.45;4.75;;;;;;;13.32;88.01;100545.59;4982322;28;20450;-70
2021/12/26 00:35:20;;;;;;;6.38;4.80;;;;;;;13.33;88.29;100548.16;4995715;28;20443;-69
2021/12/26 00:38:06;;;;;;;5.75;4.25;;;;;;;13.36;88.22;100545.44;4982836;28;20038;-70
2021/12/26 00:44:59;;;;;;;6.13;4.60;;;;;;;13.07;89.16;100545.47;4996355;28;20041;-70
2021/12/26 00:47:45;;;;;;;6.53;4.80;;;;;;;13.31;88.83;100543.88;4995403;28;20058;-72
2021/12/26 00:50:34;;;;;;;7.63;4.85;;;;;;;13.27;88.01;100543.09;4982930;28;20035;-70
2021/12/26 00:53:19;;;;;;;7.63;4.80;;;;;;;13.43;87.81;100544.31;4995118;28;20030;-70
2021/12/26 00:56:05;;;;;;;7.10;5.00;;;;;;;13.14;89.02;100535.66;4995672;28;20030;-70
2021/12/26 00:58:51;;;;;;;9.23;5.22;;;;;;;13.28;88.26;100543.97;4995492;28;20034;-70
2021/12/26 01:01:37;;;;;;;6.13;4.53;;;;;;;13.18;88.96;100555.69;4996459;28;20034;-70
2021/12/26 01:04:23;;;;;;;7.43;4.60;;;;;;;13.27;88.49;100563.28;4994592;28;20054;-71
2021/12/26 01:07:22;;;;;;;6.57;4.47;;;;;;;13.19;89.00;100567.91;4995243;28;20022;-70
2021/12/26 01:10:09;;;;;;;7.32;4.90;;;;;;;12.82;91.56;100564.63;4996175;28;20092;-70
2021/12/26 01:12:55;;;;;;;7.35;5.25;;;;;;;12.62;92.14;100564.34;4995093;28;20038;-70
2021/12/26 01:15:44;;;;;;;8.65;5.30;;;;;;;12.78;92.97;100570.88;4996376;28;20034;-70
2021/12/26 01:18:36;;;;;;;8.05;5.45;;;;;;;12.76;93.03;100560.41;4995602;28;20022;-69
2021/12/26 01:21:25;;;;;;;7.30;4.97;;;;;;;12.79;94.10;100555.06;4994033;28;20022;-70
2021/12/26 01:24:14;;;;;;;8.13;5.72;;;;;;;12.95;92.47;100563.34;4980884;28;20113;-69
2021/12/26 01:27:01;;;;;;;8.52;5.43;;;;;;;12.81;93.31;100552.38;4995033;28;20402;-69
2021/12/26 01:29:47;;;;;;;9.57;5.70;;;;;;;12.72;94.32;100550.00;4981351;28;20022;-70
2021/12/26 01:32:33;;;;;;;6.43;4.68;;;;;;;12.92;93.27;100547.66;4981022;28;20117;-69
2021/12/26 01:35:19;;;;;;;7.78;5.38;;;;;;;12.96;92.93;100547.53;4995121;28;20030;-70
2021/12/26 01:38:09;;;;;;;9.07;6.03;;;;;;;13.04;93.10;100540.31;4980839;28;20408;-70
2021/12/26 01:40:57;;;;;;;8.90;6.57;;;;;;;13.00;93.28;100543.94;4995058;28;20030;-71
2021/12/26 01:43:46;;;;;;;8.63;6.38;;;;;;;12.95;93.50;100543.16;4982085;28;20406;-71
2021/12/26 01:46:32;;;;;;;7.50;5.70;;;;;;;12.78;95.25;100540.19;4995299;28;20462;-70
2021/12/26 01:49:21;;;;;;;7.95;5.78;;;;;;;12.60;97.09;100551.25;4994786;28;20116;-71
2021/12/26 01:52:07;;;;;;;8.70;5.88;;;;;;;12.73;96.52;100546.47;4981532;28;20027;-70
2021/12/26 01:55:01;;;;;;;9.88;6.47;;;;;;;12.20;100.00;100547.09;4980920;28;20026;-71
2021/12/26 01:57:49;;;;;;;9.52;6.45;;;;;;;12.25;100.00;100555.72;4994830;28;20152;-70
2021/12/26 02:04:18;;;;;;;11.95;7.38;;;;;;;11.87;100.00;100564.63;4994956;28;20022;-70
2021/12/26 02:07:07;;;;;;;10.93;7.82;;;;;;;11.01;100.00;100576.22;4994429;28;20041;-70
2021/12/26 02:09:52;;;;;;;14.30;9.27;;;;;;;10.99;100.00;100580.66;4995045;28;20026;-70
2021/12/26 02:12:39;;;;;;;13.45;9.55;;;;;;;10.97;100.00;100579.81;4995070;28;20109;-70
2021/12/26 02:15:25;;;;;;;15.25;9.35;;;;;;;11.15;100.00;100581.16;4980320;28;20049;-70
2021/12/26 02:18:12;;;;;;;14.75;9.38;;;;;;;11.45;100.00;100578.72;4998439;28;20128;-69
2021/12/26 02:24:20;;;;;;;15.07;9.45;;;;;;;11.23;100.00;100585.34;4999581;28;20019;-71
2021/12/26 02:30:16;;;;;;;18.02;11.57;;;;;;;11.05;100.00;100585.75;4997007;28;20057;-70
2021/12/26 02:33:04;;;;;;;19.52;12.23;;;;;;;11.10;100.00;100583.91;4998398;28;20026;-70
2021/12/26 02:35:51;;;;;;;16.88;11.35;;;;;;;10.87;100.00;100577.41;4983855;28;20034;-70
2021/12/26 02:38:37;;;;;;;15.57;11.32;;;;;;;11.21;100.00;100592.38;4998202;28;20061;-70
2021/12/26 02:41:23;;;;;;;18.60;11.60;;;;;;;11.57;100.00;100586.31;4998505;28;20455;-70
2021/12/26 02:44:09;;;;;;;18.05;10.52;;;;;;;11.53;100.00;100584.66;4998667;28;20034;-70
2021/12/26 02:46:54;;;;;;;17.63;11.15;;;;;;;11.51;100.00;100588.22;4997219;28;20053;-72
2021/12/26 02:49:40;;;;;;;16.17;10.18;;;;;;;11.01;100.00;100588.47;4984893;28;20026;-69
2021/12/26 02:52:27;;;;;;;19.92;12.40;;;;;;;10.78;100.00;100594.19;4998710;28;20093;-70
2021/12/26 02:55:15;;;;;;;18.33;11.07;;;;;;;10.92;100.00;100583.41;4996956;28;20061;-70
2021/12/26 02:58:04;;;;;;;19.23;11.00;;;;;;;10.83;100.00;100592.34;4997818;28;20181;-70
2021/12/26 03:01:04;;;;;;;16.45;10.35;;;;;;;10.28;100.00;100604.75;4997806;28;20121;-70
2021/12/26 03:03:50;;;;;;;15.27;10.45;;;;;;;9.36;100.00;100601.03;4997242;28;20098;-71
2021/12/26 03:06:50;;;;;;;14.68;9.73;;;;;;;9.26;100.00;100609.03;4983867;28;20460;-70
2021/12/26 03:09:45;;;;;;;15.27;10.27;;;;;;;8.89;100.00;100634.75;4997776;28;20022;-70
2021/12/26 03:12:33;;;;;;;16.15;10.50;;;;;;;8.43;100.00;100637.88;4997372;28;20034;-70
2021/12/26 03:15:20;;;;;;;17.88;10.63;;;;;;;8.44;100.00;100643.09;4997836;28;20117;-70
2021/12/26 03:18:07;;;;;;;23.38;11.30;;;;;;;7.70;100.00;100641.97;4996607;28;20037;-69
2021/12/26 03:20:53;;;;;;;21.33;11.80;;;;;;;7.10;100.00;100644.94;4984074;28;20043;-70
2021/12/26 03:23:39;;;;;;;19.40;13.27;;;;;;;6.70;100.00;100657.25;4997392;28;20355;-69
2021/12/26 03:26:25;;;;;;;23.52;14.90;;;;;;;6.55;100.00;100659.88;4997766;28;20181;-70
2021/12/26 03:29:10;;;;;;;23.02;15.15;;;;;;;6.25;100.00;100664.28;4998732;28;20046;-69
2021/12/26 03:31:57;;;;;;;22.20;14.98;;;;;;;6.17;100.00;100666.91;4997940;28;20026;-70
2021/12/26 03:34:47;;;;;;;23.27;15.95;;;;;;;6.49;100.00;100659.03;4997817;28;20046;-70
2021/12/26 03:37:34;;;;;;;24.23;15.80;;;;;;;6.73;100.00;100664.19;4997626;28;20061;-70
2021/12/26 03:40:20;;;;;;;28.75;16.92;;;;;;;6.48;100.00;100670.31;4997313;28;20399;-70
2021/12/26 03:43:06;;;;;;;30.60;16.85;;;;;;;6.25;100.00;100682.50;4997325;28;20034;-69
2021/12/26 03:45:53;;;;;;;29.35;17.35;;;;;;;6.07;100.00;100680.75;4999016;28;20066;-70
2021/12/26 03:48:39;;;;;;;33.65;17.98;;;;;;;6.08;100.00;100673.84;4998097;28;20050;-70
2021/12/26 03:51:25;;;;;;;29.60;17.58;;;;;;;6.21;100.00;100689.44;4997808;28;20026;-71
2021/12/26 03:54:11;;;;;;;38.42;17.85;;;;;;;6.55;100.00;100690.28;4995549;28;20323;-70
2021/12/26 03:56:57;;;;;;;32.97;18.00;;;;;;;5.42;100.00;100704.91;4997287;28;20105;-70
2021/12/26 03:59:43;;;;;;;31.48;16.90;;;;;;;5.84;100.00;100703.31;4997053;28;20037;-70
2021/12/26 04:02:28;;;;;;;34.58;18.55;;;;;;;5.28;100.00;100710.06;4996213;28;20109;-70
2021/12/26 04:05:15;;;;;;;38.03;19.45;;;;;;;5.18;100.00;100708.28;4997532;28;20469;-70
2021/12/26 04:08:03;;;;;;;46.33;21.23;;;;;;;5.20;100.00;100712.59;4982462;28;20042;-70
2021/12/26 04:10:49;;;;;;;31.50;18.50;;;;;;;5.02;100.00;100717.72;4983640;28;20026;-70
2021/12/26 04:13:35;;;;;;;34.75;18.27;;;;;;;5.05;100.00;100716.88;4996325;28;20045;-70
2021/12/26 04:16:21;;;;;;;28.90;18.08;;;;;;;4.77;100.00;100709.81;4996728;28;20573;-70
2021/12/26 04:19:07;;;;;;;27.23;17.42;;;;;;;5.05;100.00;100725.53;4996646;28;20026;-70
2021/12/26 04:21:53;;;;;;;28.25;17.60;;;;;;;4.86;100.00;100720.22;4983205;28;20026;-69
2021/12/26 04:24:39;;;;;;;30.27;18.52;;;;;;;4.86;100.00;100728.91;4982628;28;20072;-69
2021/12/26 04:27:25;;;;;;;26.70;17.08;;;;;;;4.75;100.00;100729.72;4996726;28;20471;-68
2021/12/26 04:30:13;;;;;;;25.38;16.50;;;;;;;4.94;100.00;100724.63;4996541;28;20090;-69
2021/12/26 04:32:58;;;;;;;28.35;17.65;;;;;;;4.98;100.00;100734.16;4996859;28;20522;-69
2021/12/26 04:35:44;;;;;;;31.92;17.60;;;;;;;5.35;100.00;100741.25;4996264;28;20034;-69
2021/12/26 04:38:30;;;;;;;26.02;16.85;;;;;;;5.20;100.00;100737.72;4996204;28;20034;-69
2021/12/26 04:41:16;;;;;;;33.10;18.35;;;;;;;5.27;100.00;100735.16;4996207;28;20447;-71
2021/12/26 04:44:02;;;;;;;28.45;17.10;;;;;;;5.09;100.00;100737.69;4996274;28;20045;-69
2021/12/26 04:46:49;;;;;;;32.22;18.02;;;;;;;5.20;100.00;100735.97;4996182;28;20097;-69
2021/12/26 04:49:35;;;;;;;29.70;18.13;;;;;;;4.86;100.00;100733.22;4996283;28;20030;-68
2021/12/26 04:52:20;;;;;;;34.70;18.20;;;;;;;5.51;100.00;100749.09;4982218;28;20027;-70
2021/12/26 04:55:06;;;;;;;30.35;16.80;;;;;;;5.39;100.00;100744.75;4982335;28;20031;-69
2021/12/26 04:57:52;;;;;;;29.67;17.23;;;;;;;5.46;100.00;100756.00;4996217;28;20464;-69
2021/12/26 05:00:38;;;;;;;28.42;16.85;;;;;;;4.65;100.00;100754.72;4995500;28;20080;-68
2021/12/26 05:03:25;;;;;;;25.63;16.95;;;;;;;4.81;100.00;100766.94;4995716;28;20474;-68
2021/12/26 05:06:11;;;;;;;25.63;17.05;;;;;;;4.79;100.00;100771.22;4996650;28;20443;-69
2021/12/26 05:08:57;;;;;;;28.08;16.70;;;;;;;4.47;100.00;100783.09;4995735;28;20038;-69
2021/12/26 05:11:43;;;;;;;25.38;16.27;;;;;;;4.49;100.00;100781.41;4995142;28;20022;-69
2021/12/26 05:14:28;;;;;;;27.52;16.55;;;;;;;4.35;100.00;100777.81;4995517;28;20514;-70
2021/12/26 05:17:14;;;;;;;29.85;17.63;;;;;;;4.32;100.00;100780.41;4996125;28;20034;-70
2021/12/26 05:20:00;;;;;;;31.85;17.23;;;;;;;4.29;100.00;100788.16;4995849;28;20030;-68
2021/12/26 05:22:48;;;;;;;28.17;18.00;;;;;;;4.51;100.00;100791.81;4982268;28;20030;-70
2021/12/26 05:25:33;;;;;;;35.47;17.70;;;;;;;4.19;100.00;100786.31;4994427;28;20030;-68
2021/12/26 05:28:19;;;;;;;27.63;17.73;;;;;;;4.73;100.00;100786.78;4994676;28;20030;-69
2021/12/26 05:31:05;;;;;;;28.75;17.20;;;;;;;4.54;100.00;100781.44;4995400;28;20061;-69
2021/12/26 05:33:51;;;;;;;27.58;17.30;;;;;;;4.33;100.00;100771.78;4995820;28;20057;-68
2021/12/26 05:36:36;;;;;;;33.25;18.70;;;;;;;4.54;100.00;100778.84;4981092;28;20026;-68
2021/12/26 05:39:22;;;;;;;39.00;19.83;;;;;;;4.82;100.00;100780.75;4995943;28;20069;-68
2021/12/26 05:42:15;;;;;;;30.25;18.95;;;;;;;4.72;100.00;100785.06;4995586;28;20045;-70
2021/12/26 05:45:02;;;;;;;36.10;19.33;;;;;;;4.21;100.00;100784.63;4994971;28;20381;-68
2021/12/26 05:47:48;;;;;;;39.10;20.02;;;;;;;4.44;100.00;100790.88;4975673;28;20047;-70
2021/12/26 05:50:34;;;;;;;35.72;19.70;;;;;;;4.38;100.00;100782.19;4977951;28;20042;-68
2021/12/26 05:53:20;;;;;;;35.53;20.83;;;;;;;4.65;100.00;100798.84;4979048;28;20062;-70
2021/12/26 05:56:06;;;;;;;48.50;23.63;;;;;;;4.33;100.00;100789.03;4966274;28;20035;-67
2021/12/26 05:58:52;;;;;;;49.33;24.90;;;;;;;4.67;100.00;100791.91;4979400;28;20041;-68
2021/12/26 06:01:37;;;;;;;39.60;21.98;;;;;;;4.25;100.00;100791.56;4965672;28;20023;-67
2021/12/26 06:04:24;;;;;;;40.45;21.42;;;;;;;4.10;100.00;100801.78;4979507;28;20391;-68
2021/12/26 06:07:10;;;;;;;35.05;20.80;;;;;;;4.16;100.00;100796.69;4979672;28;20026;-68
2021/12/26 06:09:55;;;;;;;36.33;21.80;;;;;;;4.57;100.00;100797.91;4965662;28;20022;-69
2021/12/26 06:12:41;;;;;;;34.70;21.30;;;;;;;4.25;100.00;100799.34;4979129;28;20374;-69
2021/12/26 06:15:27;;;;;;;34.30;20.52;;;;;;;4.36;100.00;100802.03;4979562;28;20093;-70
2021/12/26 06:18:13;;;;;;;36.63;21.13;;;;;;;4.27;100.00;100804.56;4978910;28;20042;-69
2021/12/26 06:20:58;;;;;;;40.08;22.30;;;;;;;4.34;100.00;100804.63;4979745;28;20033;-68
2021/12/26 06:23:50;;;;;;;36.17;22.08;;;;;;;4.59;100.00;100808.31;4979144;28;20046;-68
2021/12/26 06:26:36;;;;;;;35.40;21.52;;;;;;;4.55;100.00;100811.72;4979940;28;20023;-69
2021/12/26 06:29:22;;;;;;;39.50;22.42;;;;;;;4.33;100.00;100810.66;4965185;28;20022;-70
2021/12/26 06:32:08;;;;;;;39.90;22.80;;;;;;;4.25;100.00;100822.69;4978933;28;20062;-69
2021/12/26 06:34:54;;;;;;;38.20;23.05;;;;;;;4.54;100.00;100813.44;4979014;28;20030;-68
2021/12/26 06:37:40;;;;;;;39.38;22.67;;;;;;;4.79;100.00;100823.13;4978721;28;20182;-69
2021/12/26 06:40:26;;;;;;;37.70;22.50;;;;;;;4.52;100.00;100816.88;4965619;28;20428;-69
2021/12/26 06:43:11;;;;;;;41.33;23.52;;;;;;;5.15;100.00;100820.78;4978454;28;20042;-68
2021/12/26 06:45:58;;;;;;;41.65;23.83;;;;;;;4.76;100.00;100828.34;4983671;28;20124;-69
2021/12/26 06:48:43;;;;;;;40.38;22.13;;;;;;;4.39;100.00;100847.00;4998456;28;20050;-69
2021/12/26 06:51:30;;;;;;;41.55;23.00;;;;;;;4.18;100.00;100835.59;4998769;28;20030;-69
2021/12/26 06:54:16;;;;;;;38.33;22.13;;;;;;;4.61;100.00;100846.38;4998387;28;20132;-68
2021/12/26 06:57:02;;;;;;;45.13;22.80;;;;;;;4.46;100.00;100854.00;4998360;28;20034;-68
2021/12/26 06:59:48;;;;;;;41.13;22.65;;;;;;;4.07;100.00;100853.59;4998091;28;20042;-67
2021/12/26 07:02:33;;;;;;;37.85;22.00;;;;;;;4.49;100.00;100859.22;4997547;28;20030;-68
2021/12/26 07:05:20;;;;;;;39.35;22.27;;;;;;;4.73;100.00;100845.59;4983867;28;20542;-70
2021/12/26 07:08:07;;;;;;;43.50;24.08;;;;;;;4.80;100.00;100853.44;4998321;28;20053;-68
2021/12/26 07:10:52;;;;;;;43.15;23.13;;;;;;;4.93;100.00;100849.19;4996996;28;20057;-69
2021/12/26 07:13:38;;;;;;;43.20;22.52;;;;;;;4.75;100.00;100849.94;4998051;28;20022;-71
2021/12/26 07:16:25;;;;;;;42.97;23.05;;;;;;;5.07;100.00;100856.22;4997383;28;20026;-70
2021/12/26 07:19:11;;;;;;;39.03;20.95;;;;;;;5.07;100.00;100863.16;4997082;28;20026;-70
2021/12/26 07:21:56;;;;;;;41.05;23.33;;;;;;;4.86;100.00;100840.50;4984601;28;20026;-70
2021/12/26 07:24:43;;;;;;;36.50;21.70;;;;;;;5.28;100.00;100848.56;4997863;28;20034;-70
2021/12/26 07:27:29;;;;;;;42.40;24.25;;;;;;;5.13;100.00;100851.09;4997676;28;20029;-70
2021/12/26 07:30:15;;;;;;;39.90;22.17;;;;;;;5.25;100.00;100865.88;4997585;28;20023;-69
2021/12/26 07:33:01;;;;;;;38.63;22.52;;;;;;;5.02;100.00;100857.94;4983341;28;20027;-70
2021/12/26 07:35:47;;;;;;;39.97;22.60;;;;;;;4.68;100.00;100855.94;4997638;28;20030;-69
2021/12/26 07:38:32;;;;;;;39.38;22.33;;;;;;;4.32;100.00;100855.63;4997603;28;20114;-69
2021/12/26 07:41:19;;;;;;;43.35;22.02;;;;;;;4.76;100.00;100851.69;4997158;28;20037;-69
2021/12/26 07:44:05;;;;;;;38.72;22.65;;;;;;;4.86;100.00;100856.09;4997681;28;20073;-69
2021/12/26 07:46:51;;;;;;;41.88;23.38;;;;;;;5.32;100.00;100865.91;4997495;28;20383;-69
2021/12/26 07:49:37;;;;;;;40.00;22.50;;;;;;;5.12;100.00;100864.06;4983082;28;20018;-69
2021/12/26 07:52:28;;;;;;;37.90;22.20;;;;;;;5.04;100.00;100878.72;4997563;28;20089;-69
2021/12/26 07:55:14;;;;;;;43.25;21.88;;;;;;;5.09;100.00;100880.50;4996580;28;20367;-68
2021/12/26 07:58:00;;;;;;;37.40;22.10;;;;;;;4.93;100.00;100877.75;4997298;28;20351;-70
2021/12/26 08:00:46;;;;;;;42.08;22.63;;;;;;;5.03;100.00;100877.84;4997045;28;20037;-70
2021/12/26 08:03:36;;;;;;;37.75;22.17;;;;;;;5.35;100.00;100886.72;4997268;28;20037;-69
2021/12/26 08:06:22;;;;;;;39.22;21.67;;;;;;;5.29;100.00;100873.69;4996503;28;20057;-68
2021/12/26 08:09:08;;;;;;;54.40;28.52;;;;;;;5.50;100.00;100883.31;4996653;28;20014;-68
2021/12/26 08:11:54;;;;;;;44.72;23.50;;;;;;;5.44;100.00;100881.56;4996909;28;20034;-69
2021/12/26 08:14:40;;;;;;;41.80;23.15;;;;;;;5.52;100.00;100892.00;4995962;28;20035;-69
2021/12/26 08:17:26;;;;;;;46.42;23.30;;;;;;;5.19;100.00;100881.44;4996606;28;20101;-69
2021/12/26 08:20:12;;;;;;;41.20;23.20;;;;;;;5.03;100.00;100870.03;4997048;28;20030;-69
2021/12/26 08:22:58;;;;;;;40.35;22.42;;;;;;;5.00;100.00;100880.44;4983195;28;20053;-69
2021/12/26 08:25:43;;;;;;;46.40;24.38;;;;;;;4.88;100.00;100885.53;4981346;28;20023;-69
2021/12/26 08:28:29;;;;;;;42.30;22.42;;;;;;;5.34;100.00;100884.97;4996300;28;20037;-69
2021/12/26 08:31:16;;;;;;;44.70;22.85;;;;;;;5.38;100.00;100873.75;4996317;28;20367;-70
2021/12/26 08:34:04;;;;;;;43.55;22.30;;;;;;;5.17;100.00;100875.34;4995859;28;20479;-68
2021/12/26 08:37:00;;;;;;;41.83;22.77;;;;;;;5.13;100.00;100866.66;4995325;28;20034;-70
2021/12/26 08:39:47;;;;;;;40.78;21.42;;;;;;;5.39;100.00;100867.69;4995819;28;20095;-68
2021/12/26 08:42:33;;;;;;;44.50;22.15;;;;;;;5.04;100.00;100860.53;4995572;28;20065;-69
2021/12/26 08:45:19;;;;;;;47.25;23.75;;;;;;;5.06;100.00;100849.31;4994842;28;20085;-69
2021/12/26 08:48:05;;;;;;;45.15;23.20;;;;;;;5.34;100.00;100848.63;4995695;28;20038;-69
2021/12/26 08:50:55;;;;;;;41.17;21.98;;;;;;;5.52;100.00;100840.06;4996261;28;20052;-70
2021/12/26 08:53:41;;;;;;;46.03;22.80;;;;;;;5.48;100.00;100844.34;4997653;28;20049;-68
2021/12/26 08:56:27;;;;;;;44.80;22.75;;;;;;;5.34;100.00;100848.63;4995989;28;20356;-68
2021/12/26 08:59:13;;;;;;;41.42;21.65;;;;;;;5.04;100.00;100840.66;4995329;28;20027;-69
2021/12/26 09:02:02;;;;;;;43.83;24.00;;;;;;;5.08;100.00;100836.34;4981705;28;20030;-68
2021/12/26 09:04:48;;;;;;;44.33;23.40;;;;;;;4.83;100.00;100829.25;4995420;28;20387;-68
2021/12/26 09:07:34;;;;;;;47.35;23.13;;;;;;;4.63;100.00;100842.03;4996157;28;20116;-68
2021/12/26 09:10:20;;;;;;;44.67;22.15;;;;;;;4.73;100.00;100843.00;4996267;28;20041;-68
2021/12/26 09:13:06;;;;;;;43.78;22.02;;;;;;;4.99;100.00;100838.88;4995728;28;20033;-69
2021/12/26 09:15:55;;;;;;;56.88;23.38;;;;;;;4.49;100.00;100837.59;4982300;28;20030;-68
2021/12/26 09:18:41;;;;;;;55.40;25.98;;;;;;;4.49;100.00;100833.28;4994021;28;20034;-68
2021/12/26 09:21:27;;;;;;;51.55;24.05;;;;;;;4.52;100.00;100848.00;4996001;28;20023;-69
2021/12/26 09:24:13;;;;;;;45.35;23.52;;;;;;;5.11;100.00;100845.00;4995744;28;20109;-70
2021/12/26 09:26:59;;;;;;;49.53;24.65;;;;;;;4.92;100.00;100834.50;4981998;28;20028;-69
2021/12/26 09:29:45;;;;;;;47.08;21.58;;;;;;;5.12;100.00;100825.09;4995722;28;20035;-68
2021/12/26 09:32:31;;;;;;;46.45;24.50;;;;;;;5.19;100.00;100824.28;4995720;28;20399;-69
2021/12/26 09:35:17;;;;;;;52.78;26.13;;;;;;;5.66;100.00;100817.56;4995854;28;20104;-70
2021/12/26 09:38:03;;;;;;;47.10;23.38;;;;;;;5.61;100.00;100813.22;4996046;28;20111;-70
2021/12/26 09:40:49;;;;;;;44.03;23.27;;;;;;;6.46;100.00;100823.88;4995925;28;20117;-69
2021/12/26 09:43:35;;;;;;;43.10;22.88;;;;;;;5.31;100.00;100820.00;4995520;28;20033;-70
2021/12/26 09:46:21;;;;;;;42.63;23.90;;;;;;;5.43;100.00;100830.47;4993777;28;20054;-69
2021/12/26 09:49:07;;;;;;;38.83;20.83;;;;;;;5.36;100.00;100830.44;4980396;28;20099;-70
2021/12/26 09:51:53;;;;;;;42.05;23.10;;;;;;;5.12;100.00;100835.50;4995961;28;20083;-69
2021/12/26 09:54:39;;;;;;;42.53;23.42;;;;;;;4.99;100.00;100841.47;4995267;28;20053;-69
2021/12/26 09:57:25;;;;;;;47.95;25.20;;;;;;;4.77;100.00;100839.56;4995225;28;20113;-68
2021/12/26 10:00:27;;;;;;;42.15;23.02;;;;;;;4.85;100.00;100838.78;4995100;28;20108;-69
2021/12/26 10:03:30;;;;;;;40.83;22.40;;;;;;;4.92;100.00;100839.69;4994862;28;20365;-68
2021/12/26 10:06:18;;;;;;;46.33;24.77;;;;;;;4.83;100.00;100845.66;4994581;28;20026;-68
2021/12/26 10:09:08;;;;;;;47.45;23.85;;;;;;;4.28;100.00;100860.75;4995004;28;20027;-68
2021/12/26 10:11:57;;;;;;;45.03;25.13;;;;;;;4.04;100.00;100866.56;4994754;28;20113;-68
2021/12/26 10:14:47;;;;;;;49.40;25.45;;;;;;;4.46;100.00;100856.59;4995742;28;20464;-67
2021/12/26 10:17:33;;;;;;;57.38;27.52;;;;;;;4.81;100.00;100852.59;4995055;28;20379;-69
2021/12/26 10:20:19;;;;;;;52.55;26.55;;;;;;;4.45;100.00;100854.00;4979378;28;20042;-69
2021/12/26 10:23:34;;;;;;;58.03;28.08;;;;;;;4.44;100.00;100853.13;4981525;28;20093;-69
2021/12/26 10:26:22;;;;;;;56.42;28.05;;;;;;;4.33;100.00;100859.06;4989585;28;20082;-67
2021/12/26 10:29:13;;;;;;;52.88;27.92;;;;;;;4.27;100.00;100849.50;4994890;28;20449;-67
2021/12/26 10:32:04;;;;;;;44.33;25.23;;;;;;;4.09;100.00;100832.88;4995360;28;20096;-68
2021/12/26 10:34:54;;;;;;;47.08;25.50;;;;;;;3.92;100.00;100831.84;4994268;28;20140;-69
2021/12/26 10:37:47;;;;;;;47.03;26.25;;;;;;;4.05;100.00;100825.94;4996382;28;20036;-69
2021/12/26 10:40:33;;;;;;;49.05;26.25;;;;;;;4.05;100.00;100829.41;4998173;28;20431;-69
2021/12/26 10:43:19;;;;;;;43.53;24.15;;;;;;;4.09;100.00;100812.16;4997971;28;20049;-69
2021/12/26 10:46:14;;;;;;;47.83;26.50;;;;;;;3.92;100.00;100816.28;4997352;28;20082;-69
2021/12/26 10:49:37;;;;;;;57.42;30.55;;;;;;;4.14;100.00;100819.13;4998291;28;20451;-70
2021/12/26 10:52:35;;;;;;;45.70;26.80;;;;;;;4.05;100.00;100818.16;4997426;28;20049;-67
2021/12/26 10:55:29;;;;;;;48.60;24.92;;;;;;;3.94;100.00;100817.19;4998114;28;20105;-68
2021/12/26 10:58:18;;;;;;;48.00;26.52;;;;;;;3.87;100.00;100817.97;4998323;28;20459;-68
2021/12/26 11:01:03;;;;;;;49.42;25.63;;;;;;;3.77;100.00;100821.31;4997752;28;20105;-68
2021/12/26 11:04:05;;;;;;;53.65;26.23;;;;;;;3.45;100.00;100818.34;4998696;28;20042;-68
2021/12/26 11:07:08;;;;;;;59.53;28.17;;;;;;;4.06;100.00;100813.00;4998005;28;20097;-68
2021/12/26 11:10:08;;;;;;;51.00;26.25;;;;;;;3.74;100.00;100806.59;4997911;28;20018;-67
2021/12/26 11:12:59;;;;;;;56.70;26.55;;;;;;;4.16;100.00;100809.66;4997965;28;20026;-69
2021/12/26 11:15:58;;;;;;;55.28;27.17;;;;;;;4.10;100.00;100811.31;4998203;28;20057;-68
2021/12/26 11:20:06;;;;;;;;;;;;;;;;;;;;;
2021/12/26 11:23:10;;;;;;;50.78;24.80;;;;;;;4.10;100.00;100812.16;4992973;28;20145;-71
2021/12/26 11:26:27;;;;;;;50.50;23.58;;;;;;;4.01;100.00;100803.41;4987710;28;20065;-70
2021/12/26 11:29:55;;;;;;;52.75;22.98;;;;;;;4.08;100.00;100816.47;4987281;28;20034;-69
2021/12/26 11:32:42;;;;;;;50.22;23.23;;;;;;;3.82;100.00;100817.06;4989844;28;20027;-68
2021/12/26 11:35:29;;;;;;;41.10;22.23;;;;;;;4.04;100.00;100812.13;4982965;28;20031;-67
2021/12/26 11:38:19;;;;;;;43.15;23.00;;;;;;;4.49;100.00;100822.03;4983331;28;20443;-69
2021/12/26 11:41:08;;;;;;;48.40;23.73;;;;;;;4.59;100.00;100818.69;4997601;28;20026;-68
2021/12/26 11:44:26;;;;;;;42.00;21.58;;;;;;;4.01;100.00;100821.56;4996377;28;20113;-68
2021/12/26 11:47:47;;;;;;;48.45;23.92;;;;;;;4.41;100.00;100816.78;4982384;28;20086;-69
2021/12/26 11:50:53;;;;;;;49.08;24.83;;;;;;;4.41;100.00;100811.59;4983916;28;20054;-69
2021/12/26 11:53:51;;;;;;;48.30;23.67;;;;;;;4.19;100.00;100814.84;4997511;28;20475;-68
2021/12/26 11:56:59;;;;;;;52.20;24.15;;;;;;;3.97;100.00;100817.22;4997629;28;20039;-68
2021/12/26 12:00:07;;;;;;;48.95;24.17;;;;;;;3.71;100.00;100810.88;4996959;28;20053;-68
2021/12/26 12:03:01;;;;;;;71.80;26.50;;;;;;;3.79;100.00;100807.53;4997306;28;20455;-67
2021/12/26 12:05:48;;;;;;;58.25;25.38;;;;;;;4.23;100.00;100798.47;4996527;28;20033;-68
2021/12/26 12:08:35;;;;;;;50.00;24.00;;;;;;;3.94;100.00;100799.06;4997010;28;20103;-68
2021/12/26 12:11:21;;;;;;;52.63;24.48;;;;;;;3.91;100.00;100805.03;4983267;28;20026;-68
2021/12/26 12:14:07;;;;;;;55.28;27.02;;;;;;;3.91;100.00;100802.47;4997206;28;20030;-67
2021/12/26 12:17:13;;;;;;;51.97;25.20;;;;;;;3.74;100.00;100800.56;4995780;28;20030;-68
2021/12/26 12:20:04;;;;;;;63.42;28.20;;;;;;;4.06;100.00;100802.63;4996512;28;20033;-68
2021/12/26 12:23:08;;;;;;;57.85;26.83;;;;;;;3.89;100.00;100803.28;4981098;28;20053;-67
2021/12/26 12:25:54;;;;;;;51.63;25.02;;;;;;;3.87;100.00;100792.91;4983077;28;20132;-68
2021/12/26 12:28:43;;;;;;;52.13;24.40;;;;;;;3.60;100.00;100800.41;4996599;28;20070;-68
2021/12/26 12:31:29;;;;;;;53.45;24.60;;;;;;;3.85;100.00;100791.16;4982293;28;20040;-67
2021/12/26 12:34:15;;;;;;;55.58;25.13;;;;;;;3.81;100.00;100787.69;4996733;28;20100;-68
2021/12/26 12:37:01;;;;;;;56.35;26.65;;;;;;;3.85;100.00;100785.97;4981348;28;20044;-67
2021/12/26 12:40:05;;;;;;;61.63;28.95;;;;;;;4.05;100.00;100790.53;4982515;28;20119;-68
2021/12/26 12:43:07;;;;;;;59.33;25.92;;;;;;;4.03;100.00;100787.03;4982926;28;20478;-67
2021/12/26 12:45:53;;;;;;;59.78;27.08;;;;;;;4.11;100.00;100797.50;4981699;28;20465;-69
2021/12/26 12:49:05;;;;;;;65.60;28.70;;;;;;;4.34;100.00;100785.63;4982366;28;20372;-69
2021/12/26 12:51:51;;;;;;;62.80;26.70;;;;;;;3.84;100.00;100802.38;4995594;28;20045;-69
2021/12/26 12:54:49;;;;;;;68.05;29.20;;;;;;;3.94;100.00;100799.06;4996386;28;20447;-68
2021/12/26 12:57:37;;;;;;;55.95;26.40;;;;;;;4.00;100.00;100799.97;4982284;28;20041;-68
2021/12/26 13:00:23;;;;;;;62.13;26.30;;;;;;;4.08;100.00;100803.53;4994071;28;20065;-70
2021/12/26 13:03:14;;;;;;;58.47;27.05;;;;;;;3.83;100.00;100805.84;4982487;28;20040;-69
2021/12/26 13:06:08;;;;;;;59.25;27.45;;;;;;;4.12;100.00;100809.59;4981376;28;20050;-68